Time;durP1;ratioP1;P1;durP2;ratioP2;P2;SDS_P1;SDS_P2;PMS_P1;PMS_P2;Temp;Humidity;BMP_temperature;BMP_pressure;BME280_temperature;BME280_humidity;BME280_pressure;Samples;Min_cycle;Max_cycle;Signal;HPM_P1;HPM_P2
2022/07/19 00:00:57;;;;;;;;;;;;;;;;;;5074042;28;20298;-67
2022/07/19 00:03:23;;;;;;;;;;;;;;;;;;5074004;28;20003;-67
2022/07/19 00:05:49;;;;;;;;;;;;;;;;;;5073583;28;20007;-67
2022/07/19 00:08:15;;;;;;;;;;;;;;;;;;5073597;28;19908;-67
2022/07/19 00:10:41;;;;;;;;;;;;;;;;;;5073663;28;19992;-67
2022/07/19 00:13:07;;;;;;;;;;;;;;;;;;5073656;28;20424;-67
2022/07/19 00:15:33;;;;;;;;;;;;;;;;;;5073660;28;19935;-67
2022/07/19 00:17:59;;;;;;;;;;;;;;;;;;5073628;28;19912;-67
2022/07/19 00:20:25;;;;;;;;;;;;;;;;;;5073582;28;19908;-67
2022/07/19 00:22:51;;;;;;;;;;;;;;;;;;5073358;28;19912;-67
2022/07/19 00:25:17;;;;;;;;;;;;;;;;;;5073190;28;20413;-68
2022/07/19 00:27:43;;;;;;;;;;;;;;;;;;5055482;28;19913;-67
2022/07/19 00:30:09;;;;;;;;;;;;;;;;;;5073739;28;19909;-67
2022/07/19 00:32:35;;;;;;;;;;;;;;;;;;5073442;28;20026;-67
2022/07/19 00:35:01;;;;;;;;;;;;;;;;;;5073726;28;19958;-67
2022/07/19 00:37:26;;;;;;;;;;;;;;;;;;5073687;28;19916;-67
2022/07/19 00:39:52;;;;;;;;;;;;;;;;;;5073677;28;19920;-67
2022/07/19 00:42:18;;;;;;;;;;;;;;;;;;5073319;28;19951;-68
2022/07/19 00:44:44;;;;;;;;;;;;;;;;;;5073325;28;19915;-68
2022/07/19 00:47:10;;;;;;;;;;;;;;;;;;5073530;28;19916;-67
2022/07/19 00:49:36;;;;;;;;;;;;;;;;;;5073374;28;19908;-67
2022/07/19 00:52:02;;;;;;;;;;;;;;;;;;5073340;28;19919;-68
2022/07/19 00:54:28;;;;;;;;;;;;;;;;;;5055398;28;19909;-67
2022/07/19 00:56:53;;;;;;;;;;;;;;;;;;5073548;28;19953;-67
2022/07/19 00:59:19;;;;;;;;;;;;;;;;;;5073247;28;20256;-67
2022/07/19 01:01:45;;;;;;;;;;;;;;;;;;5073455;28;19909;-67
2022/07/19 01:04:11;;;;;;;;;;;;;;;;;;5073383;28;20294;-67
2022/07/19 01:06:37;;;;;;;;;;;;;;;;;;5073316;28;19913;-67
2022/07/19 01:09:03;;;;;;;;;;;;;;;;;;5073057;28;20393;-67
2022/07/19 01:11:29;;;;;;;;;;;;;;;;;;5073138;28;19908;-67
2022/07/19 01:13:54;;;;;;;;;;;;;;;;;;5073307;28;19909;-67
2022/07/19 01:16:20;;;;;;;;;;;;;;;;;;5073025;28;20290;-67
2022/07/19 01:18:46;;;;;;;;;;;;;;;;;;5072966;28;19908;-67
2022/07/19 01:21:12;;;;;;;;;;;;;;;;;;5073237;28;19919;-67
2022/07/19 01:23:38;;;;;;;;;;;;;;;;;;5072972;28;20008;-68
2022/07/19 01:26:04;;;;;;;;;;;;;;;;;;5072785;28;19920;-67
2022/07/19 01:28:30;;;;;;;;;;;;;;;;;;5072879;28;20267;-67
2022/07/19 01:30:56;;;;;;;;;;;;;;;;;;5073145;28;19984;-67
2022/07/19 01:33:21;;;;;;;;;;;;;;;;;;5073942;28;19962;-67
2022/07/19 01:35:47;;;;;;;;;;;;;;;;;;5076523;28;20282;-67
2022/07/19 01:38:13;;;;;;;;;;;;;;;;;;5076697;28;19939;-68
2022/07/19 01:40:39;;;;;;;;;;;;;;;;;;5076344;28;19909;-67
2022/07/19 01:43:05;;;;;;;;;;;;;;;;;;5076290;28;19931;-67
2022/07/19 01:45:31;;;;;;;;;;;;;;;;;;5076188;28;20062;-67
2022/07/19 01:47:57;;;;;;;;;;;;;;;;;;5076528;28;20290;-67
2022/07/19 01:50:23;;;;;;;;;;;;;;;;;;5076163;28;19912;-67
2022/07/19 01:52:49;;;;;;;;;;;;;;;;;;5076148;28;19908;-67
2022/07/19 01:55:14;;;;;;;;;;;;;;;;;;5076409;28;20286;-67
2022/07/19 01:57:40;;;;;;;;;;;;;;;;;;5058197;28;19915;-68
2022/07/19 02:00:06;;;;;;;;;;;;;;;;;;5076051;28;19908;-67
2022/07/19 02:02:32;;;;;;;;;;;;;;;;;;5076017;28;19919;-67
2022/07/19 02:04:58;;;;;;;;;;;;;;;;;;5076223;28;19913;-67
2022/07/19 02:07:24;;;;;;;;;;;;;;;;;;5075865;28;19920;-67
2022/07/19 02:09:50;;;;;;;;;;;;;;;;;;5075930;28;19954;-67
2022/07/19 02:12:16;;;;;;;;;;;;;;;;;;5075803;28;20344;-67
2022/07/19 02:14:42;;;;;;;;;;;;;;;;;;5076073;28;19913;-67
2022/07/19 02:17:08;;;;;;;;;;;;;;;;;;5075610;28;19908;-67
2022/07/19 02:19:34;;;;;;;;;;;;;;;;;;5075721;28;19909;-67
2022/07/19 02:22:00;;;;;;;;;;;;;;;;;;5075584;28;19993;-67
2022/07/19 02:24:26;;;;;;;;;;;;;;;;;;5075650;28;19908;-67
2022/07/19 02:26:51;;;;;;;;;;;;;;;;;;5075300;28;19925;-67
2022/07/19 02:29:17;;;;;;;;;;;;;;;;;;5075467;28;19916;-67
2022/07/19 02:31:44;;;;;;;;;;;;;;;;;;5075698;28;19991;-67
2022/07/19 02:34:10;;;;;;;;;;;;;;;;;;5075733;28;19915;-67
2022/07/19 02:36:36;;;;;;;;;;;;;;;;;;5075339;28;19908;-68
2022/07/19 02:39:02;;;;;;;;;;;;;;;;;;5057611;28;19958;-67
2022/07/19 02:41:28;;;;;;;;;;;;;;;;;;5075297;28;20038;-68
2022/07/19 02:43:53;;;;;;;;;;;;;;;;;;5075147;28;19955;-68
2022/07/19 02:46:19;;;;;;;;;;;;;;;;;;5075063;28;19913;-68
2022/07/19 02:48:45;;;;;;;;;;;;;;;;;;5075096;28;19909;-67
2022/07/19 02:51:11;;;;;;;;;;;;;;;;;;5075085;28;19951;-67
2022/07/19 02:53:37;;;;;;;;;;;;;;;;;;5075122;28;19908;-68
2022/07/19 02:56:03;;;;;;;;;;;;;;;;;;5074999;28;20388;-67
2022/07/19 02:58:29;;;;;;;;;;;;;;;;;;5074844;28;19915;-67
2022/07/19 03:00:55;;;;;;;;;;;;;;;;;;5075231;28;19997;-68
2022/07/19 03:03:52;;;;;;;;;;;;;;;;;;5074760;28;20264;-67
2022/07/19 03:06:06;;;;;;;;;;;;;;;;;;5074549;28;19916;-68
2022/07/19 03:08:32;;;;;;;;;;;;;;;;;;5074986;28;19920;-68
2022/07/19 03:10:58;;;;;;;;;;;;;;;;;;5074713;28;20379;-67
2022/07/19 03:13:24;;;;;;;;;;;;;;;;;;5074908;28;19909;-67
2022/07/19 03:15:50;;;;;;;;;;;;;;;;;;5074558;28;20268;-67
2022/07/19 03:18:16;;;;;;;;;;;;;;;;;;5074471;28;19909;-66
2022/07/19 03:20:42;;;;;;;;;;;;;;;;;;5074421;28;20092;-67
2022/07/19 03:23:07;;;;;;;;;;;15.90;99.90;;;;;;5074385;28;20014;-67
2022/07/19 03:25:33;;;;;;;;;;;16.20;99.90;;;;;;5074294;28;19920;-67
2022/07/19 03:27:58;;;;;;;;;;;16.10;99.90;;;;;;5074327;28;19912;-67
2022/07/19 03:30:24;;;;;;;;;;;16.10;99.90;;;;;;5074318;28;19908;-67
2022/07/19 03:32:49;;;;;;;;;;;16.00;99.90;;;;;;5056355;28;19923;-67
2022/07/19 03:35:15;;;;;;;;;;;16.10;99.90;;;;;;5074224;28;20375;-67
2022/07/19 03:37:40;;;;;;;;;;;16.10;99.90;;;;;;5074446;28;19908;-67
2022/07/19 03:40:06;;;;;;;;;;;16.10;99.90;;;;;;5074396;28;20393;-67
2022/07/19 03:42:31;;;;;;;;;;;16.20;99.90;;;;;;5074121;28;19935;-67
2022/07/19 03:44:57;;;;;;;;;;;16.20;99.90;;;;;;5074153;28;19916;-67
2022/07/19 03:47:22;;;;;;;;;;;16.20;99.90;;;;;;5074189;28;20394;-67
2022/07/19 03:49:48;;;;;;;;;;;16.20;99.90;;;;;;5056055;28;19908;-67
2022/07/19 03:52:13;;;;;;;;;;;16.20;99.90;;;;;;5056150;28;20436;-67
2022/07/19 03:54:39;;;;;;;;;;;16.30;99.90;;;;;;5073878;28;19915;-66
2022/07/19 03:57:04;;;;;;;;;;;16.30;99.90;;;;;;5073462;28;19909;-67
2022/07/19 03:59:30;;;;;;;;;;;16.40;99.90;;;;;;5073843;28;20318;-67
2022/07/19 04:01:55;;;;;;;;;;;16.50;99.90;;;;;;5074090;28;19925;-67
2022/07/19 04:04:21;;;;;;;;;;;16.40;99.90;;;;;;5074056;28;20424;-67
2022/07/19 04:06:46;;;;;;;;;;;16.60;99.90;;;;;;5073957;28;19913;-67
2022/07/19 04:09:12;;;;;;;;;;;16.60;99.90;;;;;;5073722;28;20442;-67
2022/07/19 04:11:38;;;;;;;;;;;16.70;99.90;;;;;;5073939;28;19942;-67
2022/07/19 04:14:03;;;;;;;;;;;16.80;99.90;;;;;;5073886;28;19915;-67
2022/07/19 04:16:29;;;;;;;;;;;16.90;99.90;;;;;;5073664;28;19908;-67
2022/07/19 04:18:54;;;;;;;;;;;17.00;99.90;;;;;;5073571;28;19915;-67
2022/07/19 04:21:20;;;;;;;;;;;17.10;99.90;;;;;;5073858;28;19932;-67
2022/07/19 04:23:45;;;;;;;;;;;17.10;99.90;;;;;;5073571;28;19909;-67
2022/07/19 04:26:11;;;;;;;;;;;17.30;99.90;;;;;;5073395;28;19920;-67
2022/07/19 04:28:36;;;;;;;;;;;17.30;99.90;;;;;;5073575;28;19908;-67
2022/07/19 04:31:02;;;;;;;;;;;17.40;99.90;;;;;;5073782;28;19913;-67
2022/07/19 04:33:27;;;;;;;;;;;17.50;99.90;;;;;;5073605;28;19952;-67
2022/07/19 04:35:53;;;;;;;;;;;17.70;99.90;;;;;;5073434;28;19931;-67
2022/07/19 04:38:19;;;;;;;;;;;17.80;99.90;;;;;;5073713;28;20362;-67
2022/07/19 04:40:45;;;;;;;;;;;18.10;99.90;;;;;;5073442;28;20378;-67
2022/07/19 04:43:10;;;;;;;;;;;18.90;99.90;;;;;;5073664;28;19909;-67
2022/07/19 04:45:36;;;;;;;;;;;19.50;99.90;;;;;;5073334;28;20394;-67
2022/07/19 04:48:01;;;;;;;;;;;21.40;99.90;;;;;;5073557;28;20027;-67
2022/07/19 04:50:27;;;;;;;;;;;22.20;99.90;;;;;;5073373;28;19912;-68
2022/07/19 04:52:52;;;;;;;;;;;23.20;99.90;;;;;;5073201;28;19909;-68
2022/07/19 04:55:18;;;;;;;;;;;24.10;99.90;;;;;;5073226;28;19915;-68
2022/07/19 04:57:43;;;;;;;;;;;24.70;98.20;;;;;;5073291;28;19908;-68
2022/07/19 05:00:09;;;;;;;;;;;;;;;;;;5073212;28;19912;-68
2022/07/19 05:02:35;;;;;;;;;;;25.70;98.80;;;;;;5073228;28;19914;-68
2022/07/19 05:05:01;;;;;;;;;;;25.90;93.10;;;;;;5073443;28;19909;-68
2022/07/19 05:07:27;;;;;;;;;;;26.10;92.20;;;;;;5073115;28;19920;-68
2022/07/19 05:09:52;;;;;;;;;;;26.30;91.20;;;;;;5076983;28;19908;-68
2022/07/19 05:12:18;;;;;;;;;;;26.80;89.40;;;;;;5076949;28;19920;-68
2022/07/19 05:14:43;;;;;;;;;;;27.00;87.80;;;;;;5077158;28;19948;-68
2022/07/19 05:17:09;;;;;;;;;;;26.00;87.80;;;;;;5077152;28;19908;-68
2022/07/19 05:19:34;;;;;;;;;;;25.30;90.30;;;;;;5077067;28;20371;-68
2022/07/19 05:22:00;;;;;;;;;;;24.50;91.90;;;;;;5059063;28;20377;-68
2022/07/19 05:24:25;;;;;;;;;;;24.00;92.70;;;;;;5042114;28;20011;-67
2022/07/19 05:26:51;;;;;;;;;;;23.80;93.80;;;;;;5076460;28;19928;-68
2022/07/19 05:29:16;;;;;;;;;;;24.10;93.50;;;;;;5076845;28;19909;-68
2022/07/19 05:31:42;;;;;;;;;;;24.60;92.60;;;;;;5076558;28;19962;-67
2022/07/19 05:34:07;;;;;;;;;;;24.90;91.90;;;;;;5076829;28;19932;-68
2022/07/19 05:36:33;;;;;;;;;;;25.60;91.20;;;;;;5076525;28;19908;-68
2022/07/19 05:38:58;;;;;;;;;;;26.50;89.20;;;;;;5076433;28;19939;-68
2022/07/19 05:41:24;;;;;;;;;;;27.50;86.00;;;;;;5058496;28;20329;-68
2022/07/19 05:43:50;;;;;;;;;;;27.90;82.50;;;;;;5076367;28;20014;-68
2022/07/19 05:46:16;;;;;;;;;;;28.70;79.80;;;;;;5076263;28;19919;-67
2022/07/19 05:48:42;;;;;;;;;;;29.50;76.30;;;;;;5076502;28;20022;-67
2022/07/19 05:51:07;;;;;;;;;;;30.20;72.90;;;;;;5076328;28;19912;-68
2022/07/19 05:53:34;;;;;;;;;;;30.50;71.20;;;;;;5076229;28;19939;-67
2022/07/19 05:56:00;;;;;;;;;;;30.70;69.80;;;;;;5058175;28;20015;-67
2022/07/19 05:58:25;;;;;;;;;;;31.20;68.00;;;;;;5076194;28;20007;-68
2022/07/19 06:01:22;;;;;;;;;;;31.40;66.00;;;;;;5075920;28;19916;-67
2022/07/19 06:03:36;;;;;;;;;;;31.40;65.10;;;;;;5075865;28;20294;-68
2022/07/19 06:06:02;;;;;;;;;;;31.30;64.10;;;;;;5076708;28;19927;-68
2022/07/19 06:08:27;;;;;;;;;;;31.60;64.60;;;;;;5075688;28;20363;-68
2022/07/19 06:10:53;;;;;;;;;;;31.60;63.70;;;;;;5075830;28;19908;-68
2022/07/19 06:13:18;;;;;;;;;;;32.30;63.00;;;;;;5082854;28;19913;-68
2022/07/19 06:15:44;;;;;;;;;;;32.80;60.30;;;;;;5072620;28;19908;-68
2022/07/19 06:18:09;;;;;;;;;;;33.30;59.10;;;;;;5076785;28;20286;-68
2022/07/19 06:20:35;;;;;;;;;;;32.40;59.30;;;;;;5074892;28;19908;-68
2022/07/19 06:23:00;;;;;;;;;;;32.40;60.20;;;;;;5075538;28;20422;-68
2022/07/19 06:25:26;;;;;;;;;;;32.00;60.70;;;;;;5072142;28;20004;-68
2022/07/19 06:27:51;;;;;;;;;;;32.30;61.10;;;;;;5049950;28;19924;-68
2022/07/19 06:30:17;;;;;;;;;;;33.00;58.80;;;;;;5054535;28;19962;-68
2022/07/19 06:32:42;;;;;;;;;;;33.90;57.60;;;;;;5066595;28;20293;-68
2022/07/19 06:35:08;;;;;;;;;;;34.00;57.20;;;;;;5069371;28;19966;-68
2022/07/19 06:37:33;;;;;;;;;;;34.70;56.80;;;;;;5074868;28;19915;-68
2022/07/19 06:39:59;;;;;;;;;;;35.10;55.30;;;;;;5075124;28;19909;-68
2022/07/19 06:42:24;;;;;;;;;;;35.00;55.00;;;;;;5074765;28;20340;-68
2022/07/19 06:44:50;;;;;;;;;;;34.60;55.00;;;;;;5074962;28;19908;-68
2022/07/19 06:47:15;;;;;;;;;;;34.50;55.20;;;;;;5074880;28;19917;-68
2022/07/19 06:49:41;;;;;;;;;;;34.70;54.80;;;;;;5069700;28;19913;-68
2022/07/19 06:52:06;;;;;;;;;;;34.70;55.60;;;;;;5069325;28;19912;-68
2022/07/19 06:54:32;;;;;;;;;;;35.30;54.70;;;;;;5051937;28;20331;-68
2022/07/19 06:56:57;;;;;;;;;;;35.10;53.20;;;;;;5074611;28;19912;-68
2022/07/19 06:59:23;;;;;;;;;;;35.50;53.90;;;;;;5072438;28;19997;-68
2022/07/19 07:01:48;;;;;;;;;;;35.40;53.50;;;;;;5069329;28;19932;-68
2022/07/19 07:04:14;;;;;;;;;;;35.50;54.10;;;;;;5070241;28;19912;-68
2022/07/19 07:06:39;;;;;;;;;;;35.10;53.40;;;;;;5067784;28;19916;-68
2022/07/19 07:09:05;;;;;;;;;;;34.80;53.20;;;;;;5072540;28;20282;-68
2022/07/19 07:11:30;;;;;;;;;;;35.80;53.40;;;;;;5069145;28;19912;-68
2022/07/19 07:13:56;;;;;;;;;;;36.20;51.80;;;;;;5073371;28;20002;-68
2022/07/19 07:16:21;;;;;;;;;;;36.20;52.20;;;;;;5074126;28;19934;-68
2022/07/19 07:18:47;;;;;;;;;;;36.50;51.60;;;;;;5074624;28;19915;-69
2022/07/19 07:21:13;;;;;;;;;;;37.40;50.70;;;;;;5074693;28;20035;-68
2022/07/19 07:23:38;;;;;;;;;;;37.10;50.10;;;;;;5074385;28;19908;-68
2022/07/19 07:26:04;;;;;;;;;;;36.30;51.00;;;;;;5072609;28;19970;-68
2022/07/19 07:28:29;;;;;;;;;;;36.40;50.90;;;;;;5071565;28;19916;-70
2022/07/19 07:30:55;;;;;;;;;;;37.40;50.40;;;;;;5072521;28;19914;-67
2022/07/19 07:33:20;;;;;;;;;;;38.30;49.10;;;;;;5073400;28;20290;-68
2022/07/19 07:35:46;;;;;;;;;;;38.30;48.10;;;;;;5074017;28;20285;-68
2022/07/19 07:38:11;;;;;;;;;;;38.10;48.90;;;;;;5071746;28;19909;-68
2022/07/19 07:40:37;;;;;;;;;;;38.60;48.00;;;;;;5051593;28;19919;-67
2022/07/19 07:43:02;;;;;;;;;;;38.80;47.80;;;;;;5065795;28;19912;-68
2022/07/19 07:45:29;;;;;;;;;;;37.50;48.30;;;;;;5073852;28;20024;-68
2022/07/19 07:47:54;;;;;;;;;;;37.80;48.70;;;;;;5073629;28;19915;-68
2022/07/19 07:50:20;;;;;;;;;;;37.20;48.30;;;;;;5048047;28;19909;-68
2022/07/19 07:52:45;;;;;;;;;;;37.30;49.20;;;;;;5035708;28;19964;-68
2022/07/19 07:55:10;;;;;;;;;;;38.30;48.00;;;;;;5053895;28;19924;-68
2022/07/19 07:57:36;;;;;;;;;;;39.50;46.60;;;;;;5069759;28;19961;-68
2022/07/19 08:00:03;;;;;;;;;;;40.40;45.20;;;;;;5065858;28;19916;-68
2022/07/19 08:02:29;;;;;;;;;;;39.50;44.10;;;;;;5053538;28;19987;-68
2022/07/19 08:04:55;;;;;;;;;;;40.40;43.50;;;;;;5053529;28;20359;-68
2022/07/19 08:07:20;;;;;;;;;;;41.00;43.30;;;;;;5053642;28;19913;-68
2022/07/19 08:09:46;;;;;;;;;;;40.30;43.20;;;;;;5053663;28;19909;-68
2022/07/19 08:12:11;;;;;;;;;;;39.00;43.60;;;;;;5053668;28;20011;-68
2022/07/19 08:14:37;;;;;;;;;;;39.20;43.60;;;;;;5053597;28;19908;-68
2022/07/19 08:17:02;;;;;;;;;;;39.60;42.70;;;;;;5053544;28;19913;-68
2022/07/19 08:19:28;;;;;;;;;;;40.00;42.00;;;;;;5053510;28;20333;-68
2022/07/19 08:21:53;;;;;;;;;;;39.10;41.90;;;;;;5053427;28;19909;-68
2022/07/19 08:24:19;;;;;;;;;;;39.40;40.90;;;;;;5053507;28;19918;-69
2022/07/19 08:26:44;;;;;;;;;;;40.50;40.10;;;;;;5053065;28;20004;-68
2022/07/19 08:29:10;;;;;;;;;;;40.50;39.90;;;;;;5053633;28;19908;-68
2022/07/19 08:31:35;;;;;;;;;;;40.30;40.40;;;;;;5053377;28;19909;-68
2022/07/19 08:34:01;;;;;;;;;;;40.70;40.00;;;;;;5053371;28;19924;-68
2022/07/19 08:36:26;;;;;;;;;;;41.10;38.80;;;;;;5053333;28;19909;-68
2022/07/19 08:38:52;;;;;;;;;;;41.30;38.40;;;;;;5053510;28;19913;-67
2022/07/19 08:41:18;;;;;;;;;;;40.30;39.00;;;;;;5053455;28;19916;-68
2022/07/19 08:43:43;;;;;;;;;;;41.10;39.90;;;;;;5038955;28;20371;-68
2022/07/19 08:46:09;;;;;;;;;;;41.60;38.60;;;;;;5066658;28;19923;-68
2022/07/19 08:48:39;;;;;;;;;;;41.60;38.20;;;;;;5071416;28;19966;-68
2022/07/19 08:51:05;;;;;;;;;;;40.80;38.30;;;;;;5068349;28;20004;-68
2022/07/19 08:53:31;;;;;;;;;;;39.80;39.10;;;;;;5077217;28;19909;-68
2022/07/19 08:55:58;;;;;;;;;;;39.60;39.90;;;;;;5072837;28;19916;-68
2022/07/19 08:58:23;;;;;;;;;;;40.10;39.40;;;;;;5072611;28;19991;-67
2022/07/19 09:00:50;;;;;;;;;;;40.20;39.40;;;;;;5043352;28;20339;-68
2022/07/19 09:03:15;;;;;;;;;;;40.40;38.70;;;;;;5039100;28;19941;-68
2022/07/19 09:05:40;;;;;;;;;;;40.30;38.80;;;;;;5066561;28;19944;-68
2022/07/19 09:08:10;;;;;;;;;;;40.60;38.50;;;;;;5056806;28;19908;-68
2022/07/19 09:10:36;;;;;;;;;;;40.90;39.10;;;;;;5067081;28;19912;-68
2022/07/19 09:13:11;;;;;;;;;;;40.90;38.80;;;;;;5064493;28;19925;-68
2022/07/19 09:15:54;;;;;;;;;;;40.50;38.60;;;;;;5073465;28;19965;-68
2022/07/19 09:18:22;;;;;;;;;;;39.90;39.50;;;;;;5076973;28;19908;-67
2022/07/19 09:20:49;;;;;;;;;;;40.10;38.70;;;;;;5076953;28;19908;-68
2022/07/19 09:23:19;;;;;;;;;;;40.30;39.00;;;;;;5076872;28;20378;-67
2022/07/19 09:25:48;;;;;;;;;;;40.40;38.90;;;;;;5055041;28;19927;-67
2022/07/19 09:28:14;;;;;;;;;;;41.00;38.30;;;;;;5054179;28;19920;-67
2022/07/19 09:30:41;;;;;;;;;;;40.40;38.70;;;;;;5043718;28;19914;-68
2022/07/19 09:33:08;;;;;;;;;;;41.20;38.80;;;;;;5052723;28;19974;-68
2022/07/19 09:35:38;;;;;;;;;;;41.70;38.00;;;;;;5056543;28;20004;-68
2022/07/19 09:38:23;;;;;;;;;;;41.60;37.20;;;;;;5056498;28;19959;-67
2022/07/19 09:40:50;;;;;;;;;;;41.70;35.20;;;;;;5053187;28;20016;-68
2022/07/19 09:43:16;;;;;;;;;;;42.00;36.20;;;;;;5055307;28;20343;-68
2022/07/19 09:45:41;;;;;;;;;;;41.30;36.40;;;;;;5055077;28;19909;-68
2022/07/19 09:48:07;;;;;;;;;;;41.60;36.60;;;;;;5055157;28;19909;-68
2022/07/19 09:50:33;;;;;;;;;;;41.30;37.30;;;;;;5054895;28;20046;-68
2022/07/19 09:53:00;;;;;;;;;;;42.00;35.90;;;;;;5056472;28;19913;-67
2022/07/19 09:55:27;;;;;;;;;;;42.00;36.90;;;;;;5055603;28;19956;-68
2022/07/19 09:57:52;;;;;;;;;;;42.20;35.50;;;;;;5056132;28;19931;-67
2022/07/19 10:00:19;;;;;;;;;;;41.60;34.20;;;;;;5048400;28;19909;-67
2022/07/19 10:02:48;;;;;;;;;;;41.60;33.90;;;;;;5040130;28;19920;-67
2022/07/19 10:05:14;;;;;;;;;;;41.80;33.30;;;;;;5042374;28;20395;-67
2022/07/19 10:07:40;;;;;;;;;;;40.80;33.80;;;;;;5042357;28;19948;-68
2022/07/19 10:10:07;;;;;;;;;;;41.20;34.30;;;;;;5052963;28;19965;-68
2022/07/19 10:12:33;;;;;;;;;;;41.40;34.20;;;;;;5055604;28;19937;-67
2022/07/19 10:14:58;;;;;;;;;;;41.60;34.70;;;;;;5055915;28;19913;-67
2022/07/19 10:17:44;;;;;;;;;;;41.90;33.70;;;;;;5055968;28;20004;-67
2022/07/19 10:20:10;;;;;;;;;;;41.30;33.80;;;;;;5055646;28;19996;-68
2022/07/19 10:22:39;;;;;;;;;;;41.90;33.90;;;;;;5055875;28;20256;-67
2022/07/19 10:25:07;;;;;;;;;;;41.60;33.90;;;;;;5049959;28;19908;-67
2022/07/19 10:32:50;;;;;;;;;;;42.30;34.30;;;;;;5089706;28;19913;-67
2022/07/19 10:35:20;;;;;;;;;;;41.40;34.20;;;;;;5089952;28;19966;-67
2022/07/19 10:37:47;;;;;;;;;;;41.60;33.70;;;;;;5089713;28;20280;-67
2022/07/19 10:40:12;;;;;;;;;;;41.90;34.10;;;;;;5090000;28;20366;-67
2022/07/19 10:42:58;;;;;;;;;;;42.50;33.60;;;;;;5089599;28;19912;-67
2022/07/19 10:45:23;;;;;;;;;;;42.50;32.70;;;;;;5087662;28;19908;-67
2022/07/19 10:47:51;;;;;;;;;;;41.10;33.60;;;;;;5090119;28;19935;-67
2022/07/19 10:50:18;;;;;;;;;;;41.20;34.70;;;;;;5090795;28;19916;-67
2022/07/19 10:52:44;;;;;;;;;;;41.40;33.70;;;;;;5090471;28;19912;-67
2022/07/19 10:58:11;;;;;;;;;;;40.00;33.80;;;;;;5071046;28;19924;-69
2022/07/19 11:00:51;;;;;;;;;;;39.70;33.60;;;;;;5075389;28;19913;-69
2022/07/19 11:03:26;;;;;;;;;;;39.70;33.60;;;;;;5072814;28;19974;-69
2022/07/19 11:05:53;;;;;;;;;;;39.00;34.00;;;;;;5070795;28;19995;-68
2022/07/19 11:08:35;;;;;;;;;;;38.70;35.80;;;;;;5070117;28;19935;-69
2022/07/19 11:11:02;;;;;;;;;;;38.80;35.80;;;;;;5081604;28;19920;-69
2022/07/19 11:13:28;;;;;;;;;;;38.40;35.70;;;;;;5073917;28;20283;-69
2022/07/19 11:15:54;;;;;;;;;;;38.50;34.80;;;;;;5069468;28;19921;-67
2022/07/19 11:18:20;;;;;;;;;;;38.20;35.10;;;;;;5065892;28;19963;-66
2022/07/19 11:20:45;;;;;;;;;;;38.20;34.60;;;;;;5067103;28;19946;-69
2022/07/19 11:23:16;;;;;;;;;;;38.00;34.90;;;;;;5075582;28;20492;-68
2022/07/19 11:25:42;;;;;;;;;;;37.90;33.80;;;;;;5074312;28;19920;-69
2022/07/19 11:28:18;;;;;;;;;;;38.10;33.70;;;;;;5080212;28;19913;-69
2022/07/19 11:30:44;;;;;;;;;;;38.20;34.90;;;;;;5070260;28;19909;-69
2022/07/19 11:33:09;;;;;;;;;;;38.10;34.20;;;;;;5074585;28;19927;-68
2022/07/19 11:35:35;;;;;;;;;;;38.30;34.40;;;;;;5083099;28;19912;-68
2022/07/19 11:38:01;;;;;;;;;;;38.10;34.20;;;;;;5090075;28;20294;-68
2022/07/19 11:40:33;;;;;;;;;;;38.10;34.30;;;;;;5067955;28;19921;-68
2022/07/19 11:42:58;;;;;;;;;;;38.50;34.10;;;;;;5069894;28;19920;-68
2022/07/19 11:45:25;;;;;;;;;;;38.30;34.20;;;;;;5071120;28;19913;-68
2022/07/19 11:47:52;;;;;;;;;;;38.30;33.50;;;;;;5082042;28;19909;-68
2022/07/19 11:50:19;;;;;;;;;;;38.00;34.20;;;;;;5074464;28;19923;-68
2022/07/19 11:53:00;;;;;;;;;;;38.00;34.20;;;;;;5086631;28;20400;-68
2022/07/19 11:55:27;;;;;;;;;;;38.30;33.90;;;;;;5068011;28;20028;-68
2022/07/19 11:57:53;;;;;;;;;;;38.30;34.50;;;;;;5090314;28;19928;-68
2022/07/19 12:00:19;;;;;;;;;;;38.20;33.50;;;;;;5090262;28;19943;-68
2022/07/19 12:03:06;;;;;;;;;;;38.40;33.40;;;;;;5092138;28;19966;-67
2022/07/19 12:05:32;;;;;;;;;;;38.20;34.00;;;;;;5069726;28;19987;-67
2022/07/19 12:08:00;;;;;;;;;;;38.20;33.80;;;;;;5064879;28;20007;-67
2022/07/19 12:10:42;;;;;;;;;;;38.40;34.50;;;;;;5073776;28;21193;-68
2022/07/19 12:13:10;;;;;;;;;;;38.20;35.70;;;;;;5075465;28;20331;-67
2022/07/19 12:15:44;;;;;;;;;;;38.20;36.60;;;;;;5075766;28;19958;-68
2022/07/19 12:18:10;;;;;;;;;;;38.20;36.10;;;;;;5076038;28;19951;-67
2022/07/19 12:20:35;;;;;;;;;;;38.40;36.10;;;;;;5076112;28;20306;-68
2022/07/19 12:23:18;;;;;;;;;;;38.40;34.70;;;;;;5076344;28;19958;-68
2022/07/19 12:25:44;;;;;;;;;;;38.60;34.80;;;;;;5076308;28;19909;-68
2022/07/19 12:28:11;;;;;;;;;;;38.60;35.30;;;;;;5076240;28;19915;-68
2022/07/19 12:30:37;;;;;;;;;;;38.90;35.10;;;;;;5058056;28;19909;-68
2022/07/19 12:33:07;;;;;;;;;;;38.60;34.00;;;;;;5076033;28;20375;-68
2022/07/19 12:35:42;;;;;;;;;;;38.40;33.80;;;;;;5075866;28;19908;-67
2022/07/19 12:38:09;;;;;;;;;;;38.10;33.60;;;;;;5076045;28;20397;-68
2022/07/19 12:40:35;;;;;;;;;;;38.30;34.30;;;;;;5075985;28;20011;-68
2022/07/19 12:43:02;;;;;;;;;;;38.70;34.50;;;;;;5076055;28;19908;-67
2022/07/19 12:45:30;;;;;;;;;;;38.70;34.60;;;;;;5075978;28;19909;-68
2022/07/19 12:47:56;;;;;;;;;;;38.50;34.80;;;;;;5057707;28;19908;-68
2022/07/19 12:50:23;;;;;;;;;;;38.50;35.50;;;;;;5075600;28;20378;-67
2022/07/19 12:52:50;;;;;;;;;;;38.60;35.60;;;;;;5075509;28;20011;-67
2022/07/19 12:55:15;;;;;;;;;;;38.50;35.50;;;;;;5075691;28;19999;-67
2022/07/19 12:57:41;;;;;;;;;;;38.60;35.10;;;;;;5075156;28;20450;-68
2022/07/19 13:00:06;;;;;;;;;;;38.40;35.70;;;;;;5075654;28;20317;-67
2022/07/19 13:02:32;;;;;;;;;;;38.50;35.00;;;;;;5075579;28;19909;-67
2022/07/19 13:04:57;;;;;;;;;;;38.70;34.80;;;;;;5075308;28;19908;-67
2022/07/19 13:07:23;;;;;;;;;;;38.50;35.00;;;;;;5075164;28;19908;-67
2022/07/19 13:09:48;;;;;;;;;;;38.40;36.10;;;;;;5075166;28;19909;-67
2022/07/19 13:12:14;;;;;;;;;;;38.80;33.70;;;;;;5075361;28;19909;-67
2022/07/19 13:14:40;;;;;;;;;;;38.80;33.30;;;;;;5075312;28;19916;-68
2022/07/19 13:17:05;;;;;;;;;;;38.70;33.50;;;;;;5074908;28;19919;-67
2022/07/19 13:19:31;;;;;;;;;;;38.90;34.40;;;;;;5074011;28;19909;-68
2022/07/19 13:21:58;;;;;;;;;;;38.70;33.80;;;;;;5074963;28;19915;-67
2022/07/19 13:24:23;;;;;;;;;;;38.90;34.20;;;;;;5075177;28;20398;-67
2022/07/19 13:26:49;;;;;;;;;;;38.70;33.90;;;;;;5075038;28;19993;-68
2022/07/19 13:29:14;;;;;;;;;;;38.70;34.40;;;;;;5074774;28;20286;-67
2022/07/19 13:31:40;;;;;;;;;;;38.70;34.70;;;;;;5075026;28;19944;-68
2022/07/19 13:34:05;;;;;;;;;;;38.60;34.80;;;;;;5074695;28;20371;-68
2022/07/19 13:36:31;;;;;;;;;;;38.40;34.70;;;;;;5074863;28;19913;-68
2022/07/19 13:38:56;;;;;;;;;;;38.50;33.80;;;;;;5074567;28;20391;-68
2022/07/19 13:41:22;;;;;;;;;;;38.50;34.20;;;;;;5074833;28;20007;-68
2022/07/19 13:43:47;;;;;;;;;;;38.50;34.10;;;;;;5074527;28;19958;-68
2022/07/19 13:46:13;;;;;;;;;;;38.50;34.60;;;;;;5074498;28;19916;-68
2022/07/19 13:48:39;;;;;;;;;;;38.40;34.00;;;;;;5074680;28;20382;-68
2022/07/19 13:51:05;;;;;;;;;;;38.60;34.40;;;;;;5074430;28;19955;-68
2022/07/19 13:53:30;;;;;;;;;;;38.70;34.90;;;;;;5074425;28;19948;-68
2022/07/19 13:55:56;;;;;;;;;;;38.60;34.50;;;;;;5052925;28;19927;-68
2022/07/19 13:58:21;;;;;;;;;;;38.60;33.90;;;;;;5054198;28;19909;-68
2022/07/19 14:00:47;;;;;;;;;;;38.50;33.40;;;;;;5054519;28;19920;-68
2022/07/19 14:03:14;;;;;;;;;;;38.40;34.10;;;;;;5054383;28;19931;-68
2022/07/19 14:05:40;;;;;;;;;;;38.50;34.10;;;;;;5054459;28;20387;-68
2022/07/19 14:08:06;;;;;;;;;;;38.80;33.70;;;;;;5052922;28;20022;-68
2022/07/19 14:10:32;;;;;;;;;;;38.90;33.70;;;;;;5052752;28;19995;-68
2022/07/19 14:12:57;;;;;;;;;;;38.90;33.70;;;;;;5053979;28;19959;-68
2022/07/19 14:15:22;;;;;;;;;;;38.70;33.40;;;;;;5054186;28;19909;-67
2022/07/19 14:17:48;;;;;;;;;;;38.40;33.30;;;;;;5052533;28;19913;-67
2022/07/19 14:20:13;;;;;;;;;;;38.40;34.00;;;;;;5053873;28;19909;-68
2022/07/19 14:22:39;;;;;;;;;;;38.30;34.10;;;;;;5054098;28;20275;-68
2022/07/19 14:25:05;;;;;;;;;;;38.30;34.00;;;;;;5054144;28;19913;-68
2022/07/19 14:27:30;;;;;;;;;;;38.40;34.20;;;;;;5053721;28;19909;-68
2022/07/19 14:29:57;;;;;;;;;;;38.70;33.90;;;;;;5053717;28;19909;-68
2022/07/19 14:32:22;;;;;;;;;;;38.80;34.30;;;;;;5053726;28;20375;-69
2022/07/19 14:34:48;;;;;;;;;;;39.00;33.40;;;;;;5053636;28;19916;-69
2022/07/19 14:37:13;;;;;;;;;;;39.00;33.60;;;;;;5053631;28;19920;-68
2022/07/19 14:39:39;;;;;;;;;;;39.00;34.30;;;;;;5053955;28;19909;-68
2022/07/19 14:42:04;;;;;;;;;;;38.90;33.60;;;;;;5053910;28;20334;-68
2022/07/19 14:44:31;;;;;;;;;;;38.50;33.20;;;;;;5053574;28;19909;-68
2022/07/19 14:46:57;;;;;;;;;;;38.50;33.60;;;;;;5053787;28;19909;-68
2022/07/19 14:49:22;;;;;;;;;;;38.50;33.70;;;;;;5053800;28;19909;-68
2022/07/19 14:51:48;;;;;;;;;;;38.40;33.90;;;;;;5053499;28;20000;-68